createdAt,value
2024-04-25T00:00:01.708Z,107.92
2024-04-25T00:01:01.717Z,108.23
2024-04-25T00:02:01.686Z,107.91
2024-04-25T00:03:01.750Z,107.88
2024-04-25T00:04:01.674Z,108.49
2024-04-25T00:05:01.651Z,107.58
2024-04-25T00:06:01.655Z,107.16
2024-04-25T00:07:01.674Z,107.85
2024-04-25T00:08:01.646Z,106.32
2024-04-25T00:09:01.658Z,110.05
2024-04-25T00:10:01.694Z,105.54
2024-04-25T00:11:01.690Z,108.95
2024-04-25T00:12:01.735Z,107.48
2024-04-25T00:13:01.643Z,106.82
2024-04-25T00:14:01.630Z,106.25
2024-04-25T00:15:01.619Z,106.71
2024-04-25T00:16:01.625Z,106.12
2024-04-25T00:17:01.650Z,107.89
2024-04-25T00:18:01.616Z,109.14
2024-04-25T00:19:01.585Z,107.71
2024-04-25T00:20:01.646Z,104.97
2024-04-25T00:21:01.569Z,104.71
2024-04-25T00:22:01.549Z,105.21
2024-04-25T00:23:01.567Z,107.03
2024-04-25T00:24:01.534Z,105.82
2024-04-25T00:25:01.539Z,102.84
2024-04-25T00:26:01.522Z,105.37
2024-04-25T00:27:01.515Z,104.50
2024-04-25T00:28:01.492Z,104.78
2024-04-25T00:29:03.182Z,104.66
2024-04-25T00:30:01.491Z,103.51
2024-04-25T00:31:01.470Z,105.28
2024-04-25T00:32:01.495Z,103.92
2024-04-25T00:33:01.586Z,103.00
2024-04-25T00:34:01.646Z,102.71
2024-04-25T00:35:01.580Z,103.97
2024-04-25T00:36:01.639Z,100.73
2024-04-25T00:37:01.648Z,103.11
2024-04-25T00:38:01.685Z,102.78
2024-04-25T00:39:01.712Z,101.54
2024-04-25T00:40:01.867Z,102.53
2024-04-25T00:41:01.794Z,101.78
2024-04-25T00:42:01.849Z,103.65
2024-04-25T00:43:02.050Z,102.41
2024-04-25T00:44:01.907Z,101.40
2024-04-25T00:45:01.936Z,101.25
2024-04-25T00:46:01.993Z,101.16
2024-04-25T00:47:02.040Z,102.68
2024-04-25T00:48:02.206Z,104.28
2024-04-25T00:49:02.095Z,101.83
2024-04-25T00:50:02.139Z,102.50
2024-04-25T00:51:02.168Z,100.98
2024-04-25T00:52:02.193Z,100.79
2024-04-25T00:53:02.233Z,101.55
2024-04-25T00:54:02.284Z,104.16
2024-04-25T00:55:02.306Z,100.00
2024-04-25T00:56:02.343Z,103.67
2024-04-25T00:57:02.342Z,100.42
2024-04-25T00:58:02.384Z,100.86
2024-04-25T00:59:02.426Z,98.54
2024-04-25T01:00:02.440Z,102.22
2024-04-25T01:01:02.584Z,99.76
2024-04-25T01:02:02.517Z,101.26
2024-04-25T01:03:02.646Z,100.85
2024-04-25T01:04:02.629Z,100.14
2024-04-25T01:05:02.652Z,99.25
2024-04-25T01:06:02.657Z,98.60
2024-04-25T01:07:02.674Z,101.74
2024-04-25T01:08:02.709Z,98.17
2024-04-25T01:09:02.742Z,97.98
2024-04-25T01:10:02.809Z,99.40
2024-04-25T01:11:02.863Z,100.82
2024-04-25T01:12:02.950Z,98.38
2024-04-25T01:13:02.888Z,100.01
2024-04-25T01:14:03.009Z,98.81
2024-04-25T01:15:02.953Z,99.55
2024-04-25T01:16:03.044Z,99.58
2024-04-25T01:17:03.093Z,97.36
2024-04-25T01:18:03.135Z,97.29
2024-04-25T01:19:03.100Z,98.01
2024-04-25T01:20:03.217Z,98.88
2024-04-25T01:21:03.172Z,98.39
2024-04-25T01:22:03.199Z,96.97
2024-04-25T01:23:03.448Z,100.49
2024-04-25T01:24:03.314Z,97.79
2024-04-25T01:25:03.307Z,98.26
2024-04-25T01:26:03.374Z,98.38
2024-04-25T01:27:03.394Z,96.54
2024-04-25T01:28:03.384Z,96.65
2024-04-25T01:29:03.445Z,96.55
2024-04-25T01:30:03.422Z,97.60
2024-04-25T01:31:03.358Z,96.12
2024-04-25T01:32:03.425Z,95.87
2024-04-25T01:33:03.397Z,97.95
2024-04-25T01:34:03.527Z,97.90
2024-04-25T01:35:03.349Z,97.49
2024-04-25T01:36:03.304Z,98.24
2024-04-25T01:37:03.294Z,96.41
2024-04-25T01:38:03.394Z,96.30
2024-04-25T01:39:03.301Z,97.38
2024-04-25T01:40:03.292Z,95.54
2024-04-25T01:41:03.343Z,96.38
2024-04-25T01:42:03.306Z,96.23
2024-04-25T01:43:03.343Z,97.11
2024-04-25T01:44:03.475Z,96.35
2024-04-25T01:45:03.410Z,98.14
2024-04-25T01:46:03.453Z,96.79
2024-04-25T01:47:03.491Z,97.43
2024-04-25T01:48:03.665Z,96.25
2024-04-25T01:49:03.635Z,95.86
2024-04-25T01:50:03.737Z,94.54
2024-04-25T01:51:03.653Z,94.98
2024-04-25T01:52:03.805Z,94.34
2024-04-25T01:53:03.836Z,94.44
2024-04-25T01:55:03.821Z,94.23
2024-04-25T01:56:03.867Z,93.49
2024-04-25T01:57:03.878Z,92.01
2024-04-25T01:58:03.934Z,94.32
2024-04-25T01:59:04.230Z,95.60
2024-04-25T02:00:04.008Z,95.02
2024-04-25T02:01:04.079Z,93.39
2024-04-25T02:02:04.174Z,95.53
2024-04-25T02:03:04.280Z,94.31
2024-04-25T02:04:04.212Z,94.98
2024-04-25T02:05:04.259Z,92.05
2024-04-25T02:06:04.243Z,93.83
2024-04-25T02:07:04.276Z,93.99
2024-04-25T02:08:04.400Z,91.18
2024-04-25T02:09:04.342Z,90.47
2024-04-25T02:10:04.377Z,90.02
2024-04-25T02:11:04.496Z,92.35
2024-04-25T02:12:04.521Z,92.70
2024-04-25T02:13:04.516Z,90.99
2024-04-25T02:14:04.581Z,91.39
2024-04-25T02:15:04.552Z,91.47
2024-04-25T02:16:04.578Z,92.05
2024-04-25T02:17:04.617Z,91.56
2024-04-25T02:18:04.758Z,91.63
2024-04-25T02:19:04.662Z,93.84
2024-04-25T02:20:04.629Z,91.31
2024-04-25T02:21:04.577Z,94.21
2024-04-25T02:22:04.605Z,91.35
2024-04-25T02:23:04.728Z,91.07
2024-04-25T02:24:04.608Z,92.19
2024-04-25T02:25:04.610Z,89.51
2024-04-25T02:26:04.636Z,89.03
2024-04-25T02:27:04.586Z,90.64
2024-04-25T02:28:04.577Z,90.79
2024-04-25T02:29:04.629Z,90.80
2024-04-25T02:30:04.568Z,90.88
2024-04-25T02:31:04.554Z,90.93
2024-04-25T02:32:04.618Z,90.29
2024-04-25T02:33:04.623Z,92.82
2024-04-25T02:34:04.526Z,88.68
2024-04-25T02:35:04.530Z,90.30
2024-04-25T02:36:04.520Z,91.94
2024-04-25T02:37:04.494Z,93.41
2024-04-25T02:38:04.534Z,88.95
2024-04-25T02:39:04.476Z,89.50
2024-04-25T02:40:04.455Z,87.79
2024-04-25T02:41:04.525Z,91.17
2024-04-25T02:42:04.523Z,90.15
2024-04-25T02:43:04.575Z,88.71
2024-04-25T02:44:04.632Z,88.66
2024-04-25T02:45:04.665Z,90.90
2024-04-25T02:46:04.716Z,88.22
2024-04-25T02:47:04.788Z,89.93
2024-04-25T02:48:04.874Z,86.67
2024-04-25T02:49:04.821Z,89.11
2024-04-25T02:50:04.899Z,88.58
2024-04-25T02:51:04.914Z,89.95
2024-04-25T02:52:04.963Z,90.63
2024-04-25T02:53:05.031Z,88.44
2024-04-25T02:54:05.025Z,88.38
2024-04-25T02:55:05.074Z,87.70
2024-04-25T02:56:05.232Z,88.16
2024-04-25T02:57:05.159Z,88.49
2024-04-25T02:58:05.208Z,88.22
2024-04-25T02:59:05.275Z,89.13
2024-04-25T03:00:05.291Z,87.72
2024-04-25T03:01:05.407Z,90.50
2024-04-25T03:02:05.508Z,86.70
2024-04-25T03:03:05.543Z,88.89
2024-04-25T03:04:05.486Z,89.33
2024-04-25T03:05:05.522Z,88.91
2024-04-25T03:06:05.533Z,87.68
2024-04-25T03:07:05.568Z,89.03
2024-04-25T03:08:05.652Z,86.66
2024-04-25T03:09:05.642Z,86.24
2024-04-25T03:10:05.685Z,85.73
2024-04-25T03:11:05.776Z,87.88
2024-04-25T03:12:05.814Z,88.78
2024-04-25T03:13:05.800Z,84.90
2024-04-25T03:14:05.876Z,88.47
2024-04-25T03:15:05.886Z,87.59
2024-04-25T03:16:05.951Z,89.23
2024-04-25T03:17:06.019Z,88.24
2024-04-25T03:18:06.125Z,85.52
2024-04-25T03:19:06.069Z,87.52
2024-04-25T03:20:06.070Z,85.49
2024-04-25T03:21:06.113Z,84.24
2024-04-25T03:22:06.134Z,83.68
2024-04-25T03:23:06.310Z,87.37
2024-04-25T03:24:06.236Z,87.23
2024-04-25T03:25:09.028Z,88.19
2024-04-25T03:26:06.295Z,85.33
2024-04-25T03:27:06.232Z,84.55
2024-04-25T03:28:06.206Z,83.41
2024-04-25T03:29:06.236Z,87.45
2024-04-25T03:30:06.185Z,86.99
2024-04-25T03:31:06.183Z,83.32
2024-04-25T03:32:06.258Z,88.12
2024-04-25T03:33:06.208Z,87.03
2024-04-25T03:34:06.148Z,84.16
2024-04-25T03:35:06.163Z,83.70
2024-04-25T03:36:06.139Z,85.10
2024-04-25T03:37:06.121Z,82.90
2024-04-25T03:38:06.173Z,83.93
2024-04-25T03:39:06.100Z,85.25
2024-04-25T03:40:06.080Z,83.89
2024-04-25T03:41:06.127Z,82.62
2024-04-25T03:42:06.063Z,83.44
2024-04-25T03:43:06.060Z,81.21
2024-04-25T03:44:06.066Z,81.42
2024-04-25T03:45:06.041Z,81.77
2024-04-25T03:46:06.041Z,82.24
2024-04-25T03:47:06.034Z,84.30
2024-04-25T03:48:06.137Z,84.19
2024-04-25T03:49:06.133Z,82.92
2024-04-25T03:50:06.023Z,82.78
2024-04-25T03:51:06.020Z,85.87
2024-04-25T03:52:06.012Z,83.73
2024-04-25T03:53:06.056Z,82.22
2024-04-25T03:54:06.029Z,80.35
2024-04-25T03:55:06.027Z,82.05
2024-04-25T03:56:06.060Z,80.61
2024-04-25T03:57:06.039Z,80.76
2024-04-25T03:58:06.035Z,81.89
2024-04-25T03:59:06.107Z,82.79
2024-04-25T04:00:06.099Z,81.14
2024-04-25T04:01:06.229Z,83.15
2024-04-25T04:02:06.310Z,81.66
2024-04-25T04:03:06.290Z,81.84
2024-04-25T04:04:06.341Z,80.63
2024-04-25T04:05:06.316Z,80.56
2024-04-25T04:06:06.342Z,81.39
2024-04-25T04:07:06.377Z,83.13
2024-04-25T04:08:06.496Z,81.15
2024-04-25T04:09:06.461Z,82.26
2024-04-25T04:10:06.491Z,81.73
2024-04-25T04:11:06.634Z,80.89
2024-04-25T04:12:06.598Z,77.71
2024-04-25T04:13:06.627Z,81.92
2024-04-25T04:14:06.676Z,82.31
2024-04-25T04:15:06.819Z,80.23
2024-04-25T04:16:06.826Z,81.03
2024-04-25T04:17:06.777Z,82.71
2024-04-25T04:18:06.875Z,82.72
2024-04-25T04:19:06.826Z,79.99
2024-04-25T04:20:07.033Z,80.68
2024-04-25T04:21:07.752Z,77.68
2024-04-25T04:22:06.815Z,80.95
2024-04-25T04:23:06.880Z,82.12
2024-04-25T04:24:14.066Z,50.00
2024-04-25T04:25:14.066Z,50.00
2024-04-25T04:26:14.116Z,50.00
2024-04-25T04:27:14.054Z,50.00
2024-04-25T04:28:15.642Z,50.00
2024-04-25T04:29:14.068Z,53.02
2024-04-25T04:30:14.054Z,51.30
2024-04-25T04:31:21.262Z,50.00
2024-04-25T04:32:21.373Z,50.00
2024-04-25T04:33:21.386Z,50.00
2024-04-25T04:34:21.298Z,50.00
2024-04-25T04:35:21.350Z,50.00
2024-04-25T04:36:21.329Z,52.65
2024-04-25T04:37:21.330Z,51.04
2024-04-25T04:38:21.363Z,51.11
2024-04-25T04:39:21.369Z,51.13
2024-04-25T04:40:21.364Z,50.30
2024-04-25T04:41:21.406Z,51.88
2024-04-25T04:42:21.387Z,53.79
2024-04-25T04:43:21.386Z,50.12
2024-04-25T04:44:21.389Z,55.62
2024-04-25T04:45:21.394Z,50.41
2024-04-25T04:46:21.421Z,54.43
2024-04-25T04:47:21.578Z,54.05
2024-04-25T04:48:30.911Z,52.09
2024-04-25T04:49:22.444Z,52.27
2024-04-25T04:50:21.548Z,52.40
2024-04-25T04:51:21.478Z,51.43
2024-04-25T04:52:21.453Z,51.97
2024-04-25T04:53:21.472Z,50.28
2024-04-25T04:54:21.476Z,53.56
2024-04-25T04:55:21.485Z,53.66
2024-04-25T04:56:21.524Z,52.60
2024-04-25T04:57:21.501Z,51.16
2024-04-25T04:58:21.517Z,51.50
2024-04-25T04:59:21.542Z,50.00
2024-04-25T05:00:21.531Z,52.65
2024-04-25T05:01:21.538Z,50.97
2024-04-25T05:02:21.605Z,50.96
2024-04-25T05:03:21.682Z,50.01
2024-04-25T05:04:21.562Z,52.23
2024-04-25T05:05:21.657Z,52.01
2024-04-25T05:06:21.615Z,52.39
2024-04-25T05:07:21.667Z,51.80
2024-04-25T05:08:21.728Z,50.00
2024-04-25T05:09:21.788Z,53.21
2024-04-25T05:10:21.817Z,53.63
2024-04-25T05:11:21.965Z,54.11
2024-04-25T05:12:21.955Z,50.23
2024-04-25T05:13:21.960Z,50.55
2024-04-25T05:14:22.076Z,54.33
2024-04-25T05:15:22.068Z,53.68
2024-04-25T05:16:22.257Z,54.87
2024-04-25T05:17:22.187Z,52.70
2024-04-25T05:18:22.254Z,51.12
2024-04-25T05:19:22.262Z,52.58
2024-04-25T05:20:22.373Z,54.06
2024-04-25T05:21:22.367Z,52.28
2024-04-25T05:22:22.402Z,51.62
2024-04-25T05:23:22.502Z,52.96
2024-04-25T05:24:22.493Z,53.85
2024-04-25T05:25:22.547Z,54.02
2024-04-25T05:26:22.612Z,51.76
2024-04-25T05:27:22.693Z,54.16
2024-04-25T05:28:23.386Z,53.26
2024-04-25T05:29:22.772Z,52.55
2024-04-25T05:30:22.788Z,56.05
2024-04-25T05:31:22.787Z,54.22
2024-04-25T05:32:22.834Z,53.90
2024-04-25T05:33:22.938Z,52.09
2024-04-25T05:34:22.845Z,56.23
2024-04-25T05:35:22.870Z,52.34
2024-04-25T05:36:22.861Z,51.59
2024-04-25T05:37:22.864Z,55.72
2024-04-25T05:38:22.911Z,53.66
2024-04-25T05:39:22.901Z,50.86
2024-04-25T05:40:22.958Z,53.12
2024-04-25T05:41:22.943Z,52.68
2024-04-25T05:42:22.931Z,52.73
2024-04-25T05:43:22.938Z,53.06
2024-04-25T05:44:22.983Z,53.85
2024-04-25T05:45:22.986Z,52.42
2024-04-25T05:46:23.011Z,53.62
2024-04-25T05:47:23.055Z,55.20
2024-04-25T05:48:23.190Z,54.81
2024-04-25T05:49:23.071Z,54.58
2024-04-25T05:50:23.034Z,54.80
2024-04-25T05:51:23.018Z,54.53
2024-04-25T05:52:23.015Z,52.79
2024-04-25T05:53:23.058Z,53.31
2024-04-25T05:54:23.038Z,51.86
2024-04-25T05:55:23.089Z,54.00
2024-04-25T05:56:23.110Z,54.03
2024-04-25T05:57:23.132Z,54.02
2024-04-25T05:58:23.119Z,54.20
2024-04-25T05:59:23.195Z,53.72
2024-04-25T06:00:23.152Z,55.03
2024-04-25T06:01:23.146Z,55.51
2024-04-25T06:02:23.159Z,55.08
2024-04-25T06:03:23.220Z,55.14
2024-04-25T06:04:23.204Z,55.50
2024-04-25T06:05:23.216Z,55.54
2024-04-25T06:06:23.227Z,55.79
2024-04-25T06:07:23.258Z,54.98
2024-04-25T06:08:23.322Z,53.82
2024-04-25T06:09:23.304Z,54.67
2024-04-25T06:10:23.483Z,54.23
2024-04-25T06:11:23.470Z,54.46
2024-04-25T06:12:23.522Z,54.28
2024-04-25T06:13:23.343Z,53.21
2024-04-25T06:14:23.438Z,54.54
2024-04-25T06:15:23.410Z,54.26
2024-04-25T06:16:23.437Z,56.51
2024-04-25T06:17:23.490Z,54.24
2024-04-25T06:18:23.559Z,56.21
2024-04-25T06:19:23.471Z,54.90
2024-04-25T06:20:23.504Z,56.26
2024-04-25T06:21:23.562Z,54.03
2024-04-25T06:22:23.478Z,52.46
2024-04-25T06:23:23.534Z,54.87
2024-04-25T06:24:23.496Z,53.95
2024-04-25T06:25:23.501Z,53.56
2024-04-25T06:26:23.598Z,54.78
2024-04-25T06:27:23.542Z,55.14
2024-04-25T06:28:23.543Z,53.52
2024-04-25T06:29:23.586Z,52.81
2024-04-25T06:30:23.590Z,54.19
2024-04-25T06:31:23.591Z,55.35
2024-04-25T06:32:23.686Z,56.38
2024-04-25T06:33:23.661Z,55.53
2024-04-25T06:34:23.612Z,56.38
2024-04-25T06:35:23.664Z,55.09
2024-04-25T06:36:23.648Z,54.06
2024-04-25T06:37:23.669Z,55.62
2024-04-25T06:38:23.732Z,56.72
2024-04-25T06:39:23.690Z,57.52
2024-04-25T06:40:23.698Z,58.81
2024-04-25T06:41:23.707Z,57.13
2024-04-25T06:42:23.736Z,56.81
2024-04-25T06:43:23.735Z,53.88
2024-04-25T06:44:29.607Z,56.46
2024-04-25T06:45:24.796Z,56.49
2024-04-25T06:46:23.773Z,56.01
2024-04-25T06:47:23.882Z,57.29
2024-04-25T06:48:24.488Z,56.98
2024-04-25T06:49:23.869Z,57.89
2024-04-25T06:50:23.866Z,55.55
2024-04-25T06:51:23.813Z,58.23
2024-04-25T06:52:23.806Z,54.62
2024-04-25T06:53:23.843Z,56.70
2024-04-25T06:54:26.346Z,56.68
2024-04-25T06:55:23.855Z,55.76
2024-04-25T06:56:23.866Z,56.85
2024-04-25T06:57:23.940Z,55.79
2024-04-25T06:58:23.858Z,57.38
2024-04-25T06:59:23.899Z,59.24
2024-04-25T07:00:23.900Z,57.45
2024-04-25T07:01:23.907Z,56.99
2024-04-25T07:02:24.012Z,58.77
2024-04-25T07:03:23.994Z,56.18
2024-04-25T07:04:23.948Z,56.98
2024-04-25T07:05:24.002Z,56.01
2024-04-25T07:06:24.002Z,56.76
2024-04-25T07:07:24.014Z,56.63
2024-04-25T07:08:24.079Z,57.44
2024-04-25T07:09:24.017Z,55.90
2024-04-25T07:10:24.058Z,56.63
2024-04-25T07:11:24.111Z,56.69
2024-04-25T07:12:24.042Z,57.33
2024-04-25T07:13:24.040Z,56.47
2024-04-25T07:14:24.124Z,57.38
2024-04-25T07:15:24.069Z,58.11
2024-04-25T07:16:24.085Z,56.80
2024-04-25T07:17:24.252Z,55.65
2024-04-25T07:18:24.172Z,56.77
2024-04-25T07:19:24.128Z,57.23
2024-04-25T07:20:24.198Z,58.32
2024-04-25T07:21:24.163Z,58.57
2024-04-25T07:22:24.166Z,58.63
2024-04-25T07:23:24.214Z,60.04
2024-04-25T07:24:24.187Z,58.53
2024-04-25T07:25:24.217Z,60.00
2024-04-25T07:26:24.233Z,57.44
2024-04-25T07:27:24.267Z,57.47
2024-04-25T07:28:24.299Z,57.65
2024-04-25T07:29:24.347Z,57.66
2024-04-25T07:30:24.316Z,58.45
2024-04-25T07:31:24.337Z,60.08
2024-04-25T07:32:24.455Z,57.99
2024-04-25T07:33:24.543Z,58.31
2024-04-25T07:34:24.391Z,59.34
2024-04-25T07:35:24.435Z,58.02
2024-04-25T07:36:24.406Z,58.15
2024-04-25T07:37:24.419Z,60.52
2024-04-25T07:38:24.481Z,61.22
2024-04-25T07:39:24.500Z,58.68
2024-04-25T07:40:24.475Z,57.99
2024-04-25T07:41:24.518Z,57.26
2024-04-25T07:42:24.515Z,60.35
2024-04-25T07:43:24.515Z,58.65
2024-04-25T07:44:24.617Z,60.62
2024-04-25T07:45:24.541Z,55.63
2024-04-25T07:46:24.561Z,56.72
2024-04-25T07:47:24.624Z,57.32
2024-04-25T07:48:24.684Z,57.59
2024-04-25T07:49:24.793Z,57.52
2024-04-25T07:50:24.681Z,58.85
2024-04-25T07:51:24.620Z,57.72
2024-04-25T07:52:27.607Z,58.51
2024-04-25T07:53:24.666Z,58.59
2024-04-25T07:54:24.663Z,58.61
2024-04-25T07:55:24.671Z,58.96
2024-04-25T07:56:24.732Z,59.12
2024-04-25T07:57:24.710Z,59.79
2024-04-25T07:58:24.714Z,57.90
2024-04-25T07:59:24.736Z,59.71
2024-04-25T08:00:24.728Z,58.11
2024-04-25T08:01:24.750Z,58.44
2024-04-25T08:02:24.859Z,57.23
2024-04-25T08:03:24.916Z,58.37
2024-04-25T08:04:24.882Z,58.84
2024-04-25T08:05:24.934Z,61.11
2024-04-25T08:06:24.837Z,55.83
2024-04-25T08:07:24.858Z,61.48
2024-04-25T08:08:26.098Z,59.96
2024-04-25T08:09:24.906Z,60.54
2024-04-25T08:10:24.987Z,58.93
2024-04-25T08:11:24.959Z,59.26
2024-04-25T08:12:24.957Z,59.05
2024-04-25T08:13:24.951Z,58.97
2024-04-25T08:14:24.979Z,59.60
2024-04-25T08:15:24.986Z,58.88
2024-04-25T08:16:25.033Z,57.37
2024-04-25T08:17:25.028Z,58.60
2024-04-25T08:18:25.037Z,54.89
2024-04-25T08:19:25.038Z,58.26
2024-04-25T08:20:27.137Z,61.54
2024-04-25T08:21:25.107Z,61.62
2024-04-25T08:22:25.113Z,60.10
2024-04-25T08:23:25.194Z,60.13
2024-04-25T08:24:25.247Z,60.74
2024-04-25T08:25:25.218Z,60.09
2024-04-25T08:26:25.312Z,62.42
2024-04-25T08:27:25.253Z,60.49
2024-04-25T08:28:25.286Z,60.19
2024-04-25T08:29:25.512Z,58.89
2024-04-25T08:30:25.354Z,60.08
2024-04-25T08:31:25.420Z,58.89
2024-04-25T08:32:26.508Z,59.16
2024-04-25T08:33:25.476Z,58.72
2024-04-25T08:34:25.511Z,57.98
2024-04-25T08:35:25.535Z,59.14
2024-04-25T08:36:25.530Z,58.13
2024-04-25T08:37:25.590Z,57.37
2024-04-25T08:38:25.611Z,57.92
2024-04-25T08:39:25.612Z,57.13
2024-04-25T08:40:25.615Z,58.51
2024-04-25T08:41:25.693Z,57.57
2024-04-25T08:42:25.690Z,56.12
2024-04-25T08:43:25.736Z,55.84
2024-04-25T08:44:25.777Z,55.92
2024-04-25T08:45:25.826Z,55.65
2024-04-25T08:46:25.797Z,56.55
2024-04-25T08:47:25.874Z,56.73
2024-04-25T08:48:25.964Z,57.36
2024-04-25T08:49:25.872Z,56.06
2024-04-25T08:50:25.916Z,59.27
2024-04-25T08:51:25.944Z,56.12
2024-04-25T08:52:25.933Z,57.37
2024-04-25T08:53:26.002Z,56.62
2024-04-25T08:54:25.999Z,51.46
2024-04-25T08:55:26.118Z,55.49
2024-04-25T08:56:26.083Z,53.31
2024-04-25T08:57:26.099Z,54.99
2024-04-25T08:58:26.101Z,53.34
2024-04-25T08:59:26.151Z,57.73
2024-04-25T09:00:26.153Z,55.95
2024-04-25T09:01:26.234Z,52.90
2024-04-25T09:02:26.313Z,51.96
2024-04-25T09:03:26.370Z,53.35
2024-04-25T09:04:26.255Z,53.57
2024-04-25T09:05:26.368Z,55.23
2024-04-25T09:06:28.379Z,54.73
2024-04-25T09:07:26.302Z,54.18
2024-04-25T09:08:26.326Z,54.72
2024-04-25T09:09:26.365Z,54.05
2024-04-25T09:10:26.388Z,53.50
2024-04-25T09:11:26.578Z,55.58
2024-04-25T09:12:26.467Z,55.74
2024-04-25T09:13:26.394Z,53.91
2024-04-25T09:14:26.465Z,54.13
2024-04-25T09:15:26.466Z,53.21
2024-04-25T09:16:26.543Z,55.74
2024-04-25T09:17:26.525Z,53.79
2024-04-25T09:18:26.565Z,53.84
2024-04-25T09:19:26.521Z,52.75
2024-04-25T09:20:26.569Z,53.16
2024-04-25T09:21:26.555Z,53.51
2024-04-25T09:22:26.581Z,55.35
2024-04-25T09:23:26.632Z,51.87
2024-04-25T09:24:26.595Z,54.72
2024-04-25T09:25:26.635Z,52.68
2024-04-25T09:26:26.662Z,54.20
2024-04-25T09:27:26.660Z,55.33
2024-04-25T09:28:26.657Z,56.39
2024-04-25T09:29:26.707Z,54.03
2024-04-25T09:30:26.694Z,56.32
2024-04-25T09:31:26.707Z,57.94
2024-04-25T09:32:26.774Z,56.68
2024-04-25T09:33:26.902Z,54.75
2024-04-25T09:34:26.748Z,56.50
2024-04-25T09:35:26.829Z,59.23
2024-04-25T09:36:26.806Z,55.58
2024-04-25T09:37:26.813Z,54.57
2024-04-25T09:38:26.864Z,55.95
2024-04-25T09:39:26.821Z,58.07
2024-04-25T09:40:26.929Z,58.57
2024-04-25T09:41:26.874Z,55.42
2024-04-25T09:42:26.861Z,56.57
2024-04-25T09:43:26.866Z,57.41
2024-04-25T09:44:26.951Z,56.81
2024-04-25T09:45:26.923Z,57.85
2024-04-25T09:46:26.942Z,60.72
2024-04-25T09:47:27.019Z,60.66
2024-04-25T09:48:26.962Z,58.43
2024-04-25T09:49:26.969Z,59.92
2024-04-25T09:50:27.037Z,58.39
2024-04-25T09:51:27.009Z,58.93
2024-04-25T09:52:27.017Z,60.43
2024-04-25T09:53:27.073Z,56.73
2024-04-25T09:54:27.037Z,60.43
2024-04-25T09:55:27.138Z,60.08
2024-04-25T09:56:27.111Z,57.32
2024-04-25T09:57:27.067Z,60.54
2024-04-25T09:58:27.110Z,60.47
2024-04-25T09:59:27.116Z,58.53
2024-04-25T10:00:27.104Z,58.36
2024-04-25T10:01:27.155Z,60.18
2024-04-25T10:02:27.297Z,59.02
2024-04-25T10:03:27.180Z,59.52
2024-04-25T10:04:27.171Z,59.57
2024-04-25T10:05:27.211Z,60.77
2024-04-25T10:06:27.216Z,56.20
2024-04-25T10:07:27.224Z,57.52
2024-04-25T10:08:27.251Z,59.94
2024-04-25T10:09:27.262Z,61.60
2024-04-25T10:10:27.267Z,61.46
2024-04-25T10:11:27.342Z,57.79
2024-04-25T10:12:27.332Z,61.45
2024-04-25T10:13:27.290Z,59.83
2024-04-25T10:14:27.429Z,58.84
2024-04-25T10:15:27.330Z,59.32
2024-04-25T10:16:27.335Z,59.78
2024-04-25T10:17:27.423Z,60.68
2024-04-25T10:18:27.430Z,57.57
2024-04-25T10:19:27.352Z,57.59
2024-04-25T10:20:27.399Z,61.45
2024-04-25T10:21:27.372Z,59.13
2024-04-25T10:22:27.380Z,59.70
2024-04-25T10:23:27.402Z,59.83
2024-04-25T10:24:27.401Z,57.91
2024-04-25T10:25:27.386Z,60.89
2024-04-25T10:26:27.408Z,59.77
2024-04-25T10:27:27.391Z,61.30
2024-04-25T10:28:27.423Z,62.00
2024-04-25T10:29:27.442Z,61.02
2024-04-25T10:30:27.453Z,60.05
2024-04-25T10:31:27.474Z,60.73
2024-04-25T10:32:27.553Z,59.47
2024-04-25T10:33:27.536Z,61.77
2024-04-25T10:34:27.536Z,62.48
2024-04-25T10:35:27.638Z,60.10
2024-04-25T10:36:27.647Z,60.08
2024-04-25T10:37:27.739Z,61.69
2024-04-25T10:38:27.797Z,59.78
2024-04-25T10:39:27.776Z,57.83
2024-04-25T10:40:27.757Z,57.10
2024-04-25T10:41:27.837Z,55.74
2024-04-25T10:42:27.788Z,56.62
2024-04-25T10:43:27.811Z,55.28
2024-04-25T10:44:27.863Z,56.29
2024-04-25T10:45:27.844Z,53.88
2024-04-25T10:46:27.956Z,54.69
2024-04-25T10:47:28.100Z,52.12
2024-04-25T10:48:28.205Z,52.93
2024-04-25T10:49:28.298Z,51.51
2024-04-25T10:50:28.387Z,53.25
2024-04-25T10:51:28.320Z,50.82
2024-04-25T10:52:28.397Z,54.88
2024-04-25T10:53:28.476Z,53.99
2024-04-25T10:54:28.542Z,50.23
2024-04-25T10:55:28.612Z,51.61
2024-04-25T10:56:28.704Z,51.23
2024-04-25T10:57:28.772Z,51.67
2024-04-25T10:58:28.840Z,52.16
2024-04-25T10:59:28.923Z,50.97
2024-04-25T11:00:29.004Z,52.48
2024-04-25T11:01:29.245Z,50.56
2024-04-25T11:02:29.166Z,52.03
2024-04-25T11:03:29.229Z,52.32
2024-04-25T11:04:29.293Z,50.32
2024-04-25T11:05:29.408Z,51.91
2024-04-25T11:06:29.564Z,50.27
2024-04-25T11:07:29.558Z,51.63
2024-04-25T11:08:29.636Z,53.07
2024-04-25T11:09:29.668Z,51.33
2024-04-25T11:10:29.739Z,50.42
2024-04-25T11:11:29.901Z,52.60
2024-04-25T11:12:29.927Z,52.92
2024-04-25T11:13:29.973Z,53.59
2024-04-25T11:14:30.122Z,50.00
2024-04-25T11:15:30.099Z,50.86
2024-04-25T11:16:30.179Z,51.49
2024-04-25T11:17:37.064Z,51.23
2024-04-25T11:18:33.268Z,51.28
2024-04-25T11:19:33.222Z,51.27
2024-04-25T11:20:31.408Z,49.53
2024-04-25T11:21:30.422Z,49.28
2024-04-25T11:22:41.199Z,49.16
2024-04-25T11:23:31.362Z,50.00
2024-04-25T11:24:30.556Z,46.64
2024-04-25T11:25:30.364Z,45.28
2024-04-25T11:26:30.377Z,45.50
2024-04-25T11:27:30.335Z,43.85
2024-04-25T11:28:30.389Z,50.00
2024-04-25T11:29:30.420Z,51.02
2024-04-25T11:30:30.387Z,50.66
2024-04-25T11:31:30.405Z,50.00
2024-04-25T11:32:30.535Z,51.21
2024-04-25T11:33:30.627Z,54.68
2024-04-25T11:34:30.524Z,51.54
2024-04-25T11:35:30.585Z,49.86
2024-04-25T11:36:31.935Z,50.46
2024-04-25T11:37:30.696Z,50.88
2024-04-25T11:38:30.771Z,50.18
2024-04-25T11:39:30.831Z,50.17
2024-04-25T11:40:30.897Z,52.79
2024-04-25T11:41:31.064Z,50.27
2024-04-25T11:42:31.044Z,52.55
2024-04-25T11:43:31.102Z,51.41
2024-04-25T11:44:31.176Z,51.77
2024-04-25T11:45:33.562Z,53.86
2024-04-25T11:46:31.255Z,53.87
2024-04-25T11:47:31.293Z,53.04
2024-04-25T11:48:31.338Z,53.12
2024-04-25T11:49:31.276Z,52.73
2024-04-25T11:50:31.366Z,54.79
2024-04-25T11:51:31.293Z,56.04
2024-04-25T11:52:31.292Z,55.20
2024-04-25T11:53:31.323Z,57.29
2024-04-25T11:54:31.324Z,55.49
2024-04-25T11:55:31.362Z,54.97
2024-04-25T11:56:31.392Z,57.48
2024-04-25T11:57:31.370Z,60.30
2024-04-25T11:58:31.351Z,57.55
2024-04-25T11:59:31.400Z,58.70
2024-04-25T12:00:31.381Z,58.37
2024-04-25T12:01:31.372Z,61.32
2024-04-25T12:02:31.407Z,59.61
2024-04-25T12:03:31.400Z,62.29
2024-04-25T12:04:31.469Z,61.50
2024-04-25T12:05:31.426Z,60.92
2024-04-25T12:06:31.416Z,60.10
2024-04-25T12:07:31.419Z,60.91
2024-04-25T12:08:31.482Z,63.36
2024-04-25T12:09:31.485Z,63.16
2024-04-25T12:10:31.668Z,63.20
2024-04-25T12:11:31.652Z,65.10
2024-04-25T12:12:31.810Z,63.01
2024-04-25T12:13:31.735Z,64.61
2024-04-25T12:14:31.899Z,65.53
2024-04-25T12:15:31.848Z,65.65
2024-04-25T12:16:32.002Z,67.03
2024-04-25T12:17:33.559Z,63.47
2024-04-25T12:18:32.277Z,65.37
2024-04-25T12:19:32.123Z,65.24
2024-04-25T12:20:32.181Z,65.69
2024-04-25T12:21:32.231Z,65.24
2024-04-25T12:22:32.305Z,66.08
2024-04-25T12:23:32.366Z,65.46
2024-04-25T12:24:32.435Z,66.27
2024-04-25T12:25:32.466Z,66.34
2024-04-25T12:26:32.517Z,66.15
2024-04-25T12:27:32.501Z,66.45
2024-04-25T12:28:34.325Z,67.29
2024-04-25T12:29:32.527Z,67.02
2024-04-25T12:30:32.539Z,66.46
2024-04-25T12:31:32.603Z,67.50
2024-04-25T12:32:32.768Z,64.63
2024-04-25T12:33:33.028Z,65.96
2024-04-25T12:34:32.825Z,65.22
2024-04-25T12:35:32.877Z,64.45
2024-04-25T12:36:32.857Z,64.57
2024-04-25T12:37:32.851Z,64.80
2024-04-25T12:38:32.898Z,65.29
2024-04-25T12:39:32.879Z,64.89
2024-04-25T12:40:32.949Z,63.71
2024-04-25T12:41:32.896Z,66.58
2024-04-25T12:42:32.883Z,64.24
2024-04-25T12:43:32.882Z,63.31
2024-04-25T12:44:32.937Z,63.42
2024-04-25T12:45:34.275Z,63.60
2024-04-25T12:46:33.038Z,63.83
2024-04-25T12:47:33.226Z,65.24
2024-04-25T12:48:33.345Z,61.23
2024-04-25T12:49:33.239Z,64.16
2024-04-25T12:50:33.389Z,63.96
2024-04-25T12:51:33.378Z,64.88